sensor_id;sensor_type;location;lat;lon;timestamp;temperature;humidity
55036;DHT22;40936;53.008;6.556;2023-04-22T00:01:22;11.10;99.90
55036;DHT22;40936;53.008;6.556;2023-04-22T00:03:49;11.90;99.90
55036;DHT22;40936;53.008;6.556;2023-04-22T00:06:16;11.30;99.90
55036;DHT22;40936;53.008;6.556;2023-04-22T00:08:41;11.70;99.90
55036;DHT22;40936;53.008;6.556;2023-04-22T00:11:07;11.70;99.90
55036;DHT22;40936;53.008;6.556;2023-04-22T00:13:33;11.00;99.90
55036;DHT22;40936;53.008;6.556;2023-04-22T00:15:59;10.80;99.90
55036;DHT22;40936;53.008;6.556;2023-04-22T00:18:24;11.30;99.90
55036;DHT22;40936;53.008;6.556;2023-04-22T00:20:50;11.30;99.90
55036;DHT22;40936;53.008;6.556;2023-04-22T00:23:16;11.30;99.90
55036;DHT22;40936;53.008;6.556;2023-04-22T00:25:42;10.60;99.90
55036;DHT22;40936;53.008;6.556;2023-04-22T00:28:07;10.40;99.90
55036;DHT22;40936;53.008;6.556;2023-04-22T00:30:34;10.50;99.90
55036;DHT22;40936;53.008;6.556;2023-04-22T00:33:00;10.30;99.90
55036;DHT22;40936;53.008;6.556;2023-04-22T00:35:26;10.40;99.90
55036;DHT22;40936;53.008;6.556;2023-04-22T00:37:52;10.70;99.90
55036;DHT22;40936;53.008;6.556;2023-04-22T00:40:18;10.70;99.90
55036;DHT22;40936;53.008;6.556;2023-04-22T00:42:44;10.90;99.90
55036;DHT22;40936;53.008;6.556;2023-04-22T00:45:11;10.90;99.90
55036;DHT22;40936;53.008;6.556;2023-04-22T00:47:40;10.80;99.90
55036;DHT22;40936;53.008;6.556;2023-04-22T00:50:07;10.00;99.90
55036;DHT22;40936;53.008;6.556;2023-04-22T00:52:32;10.60;99.90
55036;DHT22;40936;53.008;6.556;2023-04-22T00:54:58;10.80;99.90
55036;DHT22;40936;53.008;6.556;2023-04-22T00:57:25;10.30;99.90
55036;DHT22;40936;53.008;6.556;2023-04-22T00:59:52;10.70;99.90
55036;DHT22;40936;53.008;6.556;2023-04-22T01:02:18;10.40;99.90
55036;DHT22;40936;53.008;6.556;2023-04-22T01:04:44;9.90;99.90
55036;DHT22;40936;53.008;6.556;2023-04-22T01:07:10;10.60;99.90
55036;DHT22;40936;53.008;6.556;2023-04-22T01:09:36;10.50;99.90
55036;DHT22;40936;53.008;6.556;2023-04-22T01:12:04;10.20;99.90
55036;DHT22;40936;53.008;6.556;2023-04-22T01:14:30;10.00;99.90
55036;DHT22;40936;53.008;6.556;2023-04-22T01:16:56;10.60;99.90
55036;DHT22;40936;53.008;6.556;2023-04-22T01:19:22;10.80;99.90
55036;DHT22;40936;53.008;6.556;2023-04-22T01:21:50;10.80;99.90
55036;DHT22;40936;53.008;6.556;2023-04-22T01:24:16;10.40;99.90
55036;DHT22;40936;53.008;6.556;2023-04-22T01:26:42;10.90;99.90
55036;DHT22;40936;53.008;6.556;2023-04-22T01:29:08;10.10;99.90
55036;DHT22;40936;53.008;6.556;2023-04-22T01:31:34;10.50;99.90
55036;DHT22;40936;53.008;6.556;2023-04-22T01:34:00;10.80;99.90
55036;DHT22;40936;53.008;6.556;2023-04-22T01:36:26;10.60;99.90
55036;DHT22;40936;53.008;6.556;2023-04-22T01:38:52;11.00;99.90
55036;DHT22;40936;53.008;6.556;2023-04-22T01:41:18;10.80;99.90
55036;DHT22;40936;53.008;6.556;2023-04-22T01:43:44;10.70;99.90
55036;DHT22;40936;53.008;6.556;2023-04-22T01:46:10;10.90;99.90
55036;DHT22;40936;53.008;6.556;2023-04-22T01:48:36;10.80;99.90
55036;DHT22;40936;53.008;6.556;2023-04-22T01:51:02;10.90;99.90
55036;DHT22;40936;53.008;6.556;2023-04-22T01:53:28;10.10;99.90
55036;DHT22;40936;53.008;6.556;2023-04-22T01:55:54;10.90;99.90
55036;DHT22;40936;53.008;6.556;2023-04-22T01:58:19;10.90;99.90
55036;DHT22;40936;53.008;6.556;2023-04-22T02:00:46;11.00;99.90
55036;DHT22;40936;53.008;6.556;2023-04-22T02:03:12;10.40;99.90
55036;DHT22;40936;53.008;6.556;2023-04-22T02:05:38;10.90;99.90
55036;DHT22;40936;53.008;6.556;2023-04-22T02:08:04;10.00;99.90
55036;DHT22;40936;53.008;6.556;2023-04-22T02:10:30;10.10;99.90
55036;DHT22;40936;53.008;6.556;2023-04-22T02:12:56;10.50;99.90
55036;DHT22;40936;53.008;6.556;2023-04-22T02:15:22;9.80;99.90
55036;DHT22;40936;53.008;6.556;2023-04-22T02:17:47;10.10;99.90
55036;DHT22;40936;53.008;6.556;2023-04-22T02:20:13;10.00;99.90
55036;DHT22;40936;53.008;6.556;2023-04-22T02:22:41;10.10;99.90
55036;DHT22;40936;53.008;6.556;2023-04-22T02:25:07;9.90;99.90
55036;DHT22;40936;53.008;6.556;2023-04-22T02:27:33;10.00;99.90
55036;DHT22;40936;53.008;6.556;2023-04-22T02:29:59;10.20;99.90
55036;DHT22;40936;53.008;6.556;2023-04-22T02:32:25;9.50;99.90
55036;DHT22;40936;53.008;6.556;2023-04-22T02:34:50;9.80;99.90
55036;DHT22;40936;53.008;6.556;2023-04-22T02:37:16;9.20;99.90
55036;DHT22;40936;53.008;6.556;2023-04-22T02:39:44;9.60;99.90
55036;DHT22;40936;53.008;6.556;2023-04-22T02:42:10;9.30;99.90
55036;DHT22;40936;53.008;6.556;2023-04-22T02:44:35;9.20;99.90
55036;DHT22;40936;53.008;6.556;2023-04-22T02:47:01;10.00;99.90
55036;DHT22;40936;53.008;6.556;2023-04-22T02:49:28;9.30;99.90
55036;DHT22;40936;53.008;6.556;2023-04-22T02:51:53;9.80;99.90
55036;DHT22;40936;53.008;6.556;2023-04-22T02:54:19;9.40;99.90
55036;DHT22;40936;53.008;6.556;2023-04-22T02:56:45;9.10;99.90
55036;DHT22;40936;53.008;6.556;2023-04-22T02:59:11;9.60;99.90
55036;DHT22;40936;53.008;6.556;2023-04-22T03:01:37;9.00;99.90
55036;DHT22;40936;53.008;6.556;2023-04-22T03:04:02;9.80;99.90
55036;DHT22;40936;53.008;6.556;2023-04-22T03:06:28;9.70;99.90
55036;DHT22;40936;53.008;6.556;2023-04-22T03:08:54;9.30;99.90
55036;DHT22;40936;53.008;6.556;2023-04-22T03:11:20;9.50;99.90
55036;DHT22;40936;53.008;6.556;2023-04-22T03:13:46;9.00;99.90
55036;DHT22;40936;53.008;6.556;2023-04-22T03:16:12;9.00;99.90
55036;DHT22;40936;53.008;6.556;2023-04-22T03:18:37;9.00;99.90
55036;DHT22;40936;53.008;6.556;2023-04-22T03:21:03;8.90;99.90
55036;DHT22;40936;53.008;6.556;2023-04-22T03:23:29;9.60;99.90
55036;DHT22;40936;53.008;6.556;2023-04-22T03:25:55;9.60;99.90
55036;DHT22;40936;53.008;6.556;2023-04-22T03:28:21;8.70;99.90
55036;DHT22;40936;53.008;6.556;2023-04-22T03:30:46;8.90;99.90
55036;DHT22;40936;53.008;6.556;2023-04-22T03:33:12;8.70;99.90
55036;DHT22;40936;53.008;6.556;2023-04-22T03:35:38;9.30;99.90
55036;DHT22;40936;53.008;6.556;2023-04-22T03:38:04;8.80;99.90
55036;DHT22;40936;53.008;6.556;2023-04-22T03:40:29;9.30;99.90
55036;DHT22;40936;53.008;6.556;2023-04-22T03:42:55;9.10;99.90
55036;DHT22;40936;53.008;6.556;2023-04-22T03:45:21;8.70;99.90
55036;DHT22;40936;53.008;6.556;2023-04-22T03:47:46;8.90;99.90
55036;DHT22;40936;53.008;6.556;2023-04-22T03:50:12;9.30;99.90
55036;DHT22;40936;53.008;6.556;2023-04-22T03:52:38;9.20;99.90
55036;DHT22;40936;53.008;6.556;2023-04-22T03:55:04;9.00;99.90
55036;DHT22;40936;53.008;6.556;2023-04-22T03:57:30;9.20;99.90
55036;DHT22;40936;53.008;6.556;2023-04-22T03:59:55;8.50;99.90
55036;DHT22;40936;53.008;6.556;2023-04-22T04:02:21;9.10;99.90
55036;DHT22;40936;53.008;6.556;2023-04-22T04:04:47;9.30;99.90
55036;DHT22;40936;53.008;6.556;2023-04-22T04:07:13;8.70;99.90
55036;DHT22;40936;53.008;6.556;2023-04-22T04:09:38;8.80;99.90
55036;DHT22;40936;53.008;6.556;2023-04-22T04:12:04;8.70;99.90
55036;DHT22;40936;53.008;6.556;2023-04-22T04:14:30;8.70;99.90
55036;DHT22;40936;53.008;6.556;2023-04-22T04:16:55;9.00;99.90
55036;DHT22;40936;53.008;6.556;2023-04-22T04:19:21;9.10;99.90
55036;DHT22;40936;53.008;6.556;2023-04-22T04:21:47;9.70;99.90
55036;DHT22;40936;53.008;6.556;2023-04-22T04:24:13;9.50;99.90
55036;DHT22;40936;53.008;6.556;2023-04-22T04:26:38;9.50;99.90
55036;DHT22;40936;53.008;6.556;2023-04-22T04:29:04;8.80;99.90
55036;DHT22;40936;53.008;6.556;2023-04-22T04:31:30;9.40;99.90
55036;DHT22;40936;53.008;6.556;2023-04-22T04:33:56;9.40;99.90
55036;DHT22;40936;53.008;6.556;2023-04-22T04:36:22;8.90;99.90
55036;DHT22;40936;53.008;6.556;2023-04-22T04:38:54;9.70;99.90
55036;DHT22;40936;53.008;6.556;2023-04-22T04:41:20;9.10;99.90
55036;DHT22;40936;53.008;6.556;2023-04-22T04:43:46;9.40;99.90
55036;DHT22;40936;53.008;6.556;2023-04-22T04:46:13;9.50;99.90
55036;DHT22;40936;53.008;6.556;2023-04-22T04:48:42;9.20;99.90
55036;DHT22;40936;53.008;6.556;2023-04-22T04:51:08;9.40;99.90
55036;DHT22;40936;53.008;6.556;2023-04-22T04:53:34;9.60;99.90
55036;DHT22;40936;53.008;6.556;2023-04-22T04:56:00;9.90;99.90
55036;DHT22;40936;53.008;6.556;2023-04-22T04:58:26;9.40;99.90
55036;DHT22;40936;53.008;6.556;2023-04-22T05:00:51;9.70;99.90
55036;DHT22;40936;53.008;6.556;2023-04-22T05:03:17;9.20;99.90
55036;DHT22;40936;53.008;6.556;2023-04-22T05:05:43;10.30;99.90
55036;DHT22;40936;53.008;6.556;2023-04-22T05:08:10;10.10;99.90
55036;DHT22;40936;53.008;6.556;2023-04-22T05:10:36;9.90;99.90
55036;DHT22;40936;53.008;6.556;2023-04-22T05:13:02;9.60;99.90
55036;DHT22;40936;53.008;6.556;2023-04-22T05:15:27;10.40;99.90
55036;DHT22;40936;53.008;6.556;2023-04-22T05:17:53;9.90;99.90
55036;DHT22;40936;53.008;6.556;2023-04-22T05:20:19;10.40;99.90
55036;DHT22;40936;53.008;6.556;2023-04-22T05:22:45;10.50;99.90
55036;DHT22;40936;53.008;6.556;2023-04-22T05:25:11;10.60;99.90
55036;DHT22;40936;53.008;6.556;2023-04-22T05:27:36;10.10;99.90
55036;DHT22;40936;53.008;6.556;2023-04-22T05:30:02;10.00;99.90
55036;DHT22;40936;53.008;6.556;2023-04-22T05:32:28;10.80;99.90
55036;DHT22;40936;53.008;6.556;2023-04-22T05:34:54;10.90;99.90
55036;DHT22;40936;53.008;6.556;2023-04-22T05:37:20;10.90;99.90
55036;DHT22;40936;53.008;6.556;2023-04-22T05:39:46;11.00;99.90
55036;DHT22;40936;53.008;6.556;2023-04-22T05:42:11;10.30;99.90
55036;DHT22;40936;53.008;6.556;2023-04-22T05:44:40;10.30;99.90
55036;DHT22;40936;53.008;6.556;2023-04-22T05:47:06;10.80;99.90
55036;DHT22;40936;53.008;6.556;2023-04-22T05:49:31;10.40;99.90
55036;DHT22;40936;53.008;6.556;2023-04-22T05:51:57;10.80;99.90
55036;DHT22;40936;53.008;6.556;2023-04-22T05:54:23;12.30;99.90
55036;DHT22;40936;53.008;6.556;2023-04-22T05:56:48;11.30;99.90
55036;DHT22;40936;53.008;6.556;2023-04-22T05:59:14;11.30;99.90
55036;DHT22;40936;53.008;6.556;2023-04-22T06:01:40;11.40;99.90
55036;DHT22;40936;53.008;6.556;2023-04-22T06:04:06;10.70;99.90
55036;DHT22;40936;53.008;6.556;2023-04-22T06:06:34;11.30;99.90
55036;DHT22;40936;53.008;6.556;2023-04-22T06:09:00;11.20;99.90
55036;DHT22;40936;53.008;6.556;2023-04-22T06:11:25;11.50;99.90
55036;DHT22;40936;53.008;6.556;2023-04-22T06:13:52;11.20;99.90
55036;DHT22;40936;53.008;6.556;2023-04-22T06:16:18;11.50;99.90
55036;DHT22;40936;53.008;6.556;2023-04-22T06:18:43;11.60;99.90
55036;DHT22;40936;53.008;6.556;2023-04-22T06:21:09;11.80;99.90
55036;DHT22;40936;53.008;6.556;2023-04-22T06:23:35;11.00;99.90
55036;DHT22;40936;53.008;6.556;2023-04-22T06:26:01;11.60;99.90
55036;DHT22;40936;53.008;6.556;2023-04-22T06:28:27;11.30;99.90
55036;DHT22;40936;53.008;6.556;2023-04-22T06:30:53;11.80;99.90
55036;DHT22;40936;53.008;6.556;2023-04-22T06:33:19;11.80;99.90
55036;DHT22;40936;53.008;6.556;2023-04-22T06:35:45;11.90;99.90
55036;DHT22;40936;53.008;6.556;2023-04-22T06:38:10;11.30;99.90
55036;DHT22;40936;53.008;6.556;2023-04-22T06:40:36;11.40;99.90
55036;DHT22;40936;53.008;6.556;2023-04-22T06:43:02;11.40;99.90
55036;DHT22;40936;53.008;6.556;2023-04-22T06:45:28;11.50;99.90
55036;DHT22;40936;53.008;6.556;2023-04-22T06:47:54;11.80;99.90
55036;DHT22;40936;53.008;6.556;2023-04-22T06:50:19;12.20;99.90
55036;DHT22;40936;53.008;6.556;2023-04-22T06:52:45;12.30;99.90
55036;DHT22;40936;53.008;6.556;2023-04-22T06:55:11;11.90;99.90
55036;DHT22;40936;53.008;6.556;2023-04-22T06:57:37;12.00;99.90
55036;DHT22;40936;53.008;6.556;2023-04-22T07:00:04;12.40;99.90
55036;DHT22;40936;53.008;6.556;2023-04-22T07:02:30;12.30;99.90
55036;DHT22;40936;53.008;6.556;2023-04-22T07:04:56;12.40;99.90
55036;DHT22;40936;53.008;6.556;2023-04-22T07:07:22;12.10;99.90
55036;DHT22;40936;53.008;6.556;2023-04-22T07:09:47;12.50;99.90
55036;DHT22;40936;53.008;6.556;2023-04-22T07:12:13;12.10;99.90
55036;DHT22;40936;53.008;6.556;2023-04-22T07:14:48;12.30;99.90
55036;DHT22;40936;53.008;6.556;2023-04-22T07:17:14;12.50;99.90
55036;DHT22;40936;53.008;6.556;2023-04-22T07:19:40;12.50;99.90
55036;DHT22;40936;53.008;6.556;2023-04-22T07:22:06;12.70;99.90
55036;DHT22;40936;53.008;6.556;2023-04-22T07:24:31;13.00;99.90
55036;DHT22;40936;53.008;6.556;2023-04-22T07:26:57;12.80;99.90
55036;DHT22;40936;53.008;6.556;2023-04-22T07:29:23;12.80;99.90
55036;DHT22;40936;53.008;6.556;2023-04-22T07:31:48;13.20;99.90
55036;DHT22;40936;53.008;6.556;2023-04-22T07:34:14;13.00;99.90
55036;DHT22;40936;53.008;6.556;2023-04-22T07:36:41;13.30;99.90
55036;DHT22;40936;53.008;6.556;2023-04-22T07:39:07;13.10;99.90
55036;DHT22;40936;53.008;6.556;2023-04-22T07:41:34;13.40;99.90
55036;DHT22;40936;53.008;6.556;2023-04-22T07:44:00;13.30;99.90
55036;DHT22;40936;53.008;6.556;2023-04-22T07:46:28;13.60;99.90
55036;DHT22;40936;53.008;6.556;2023-04-22T07:48:53;13.70;99.90
55036;DHT22;40936;53.008;6.556;2023-04-22T07:51:19;13.90;99.90
55036;DHT22;40936;53.008;6.556;2023-04-22T07:53:45;13.80;99.90
55036;DHT22;40936;53.008;6.556;2023-04-22T07:56:11;14.00;99.90
55036;DHT22;40936;53.008;6.556;2023-04-22T07:58:37;14.00;99.90
55036;DHT22;40936;53.008;6.556;2023-04-22T08:01:03;14.00;99.90
55036;DHT22;40936;53.008;6.556;2023-04-22T08:03:28;13.90;99.90
55036;DHT22;40936;53.008;6.556;2023-04-22T08:05:54;14.20;99.90
55036;DHT22;40936;53.008;6.556;2023-04-22T08:08:23;14.60;99.90
55036;DHT22;40936;53.008;6.556;2023-04-22T08:10:48;14.60;99.90
55036;DHT22;40936;53.008;6.556;2023-04-22T08:13:14;14.20;99.90
55036;DHT22;40936;53.008;6.556;2023-04-22T08:15:40;14.10;99.90
55036;DHT22;40936;53.008;6.556;2023-04-22T08:18:06;14.40;99.90
55036;DHT22;40936;53.008;6.556;2023-04-22T08:20:31;15.00;99.90
55036;DHT22;40936;53.008;6.556;2023-04-22T08:22:57;15.40;99.90
55036;DHT22;40936;53.008;6.556;2023-04-22T08:25:25;15.30;99.90
55036;DHT22;40936;53.008;6.556;2023-04-22T08:27:51;15.60;99.90
55036;DHT22;40936;53.008;6.556;2023-04-22T08:30:17;16.20;99.90
55036;DHT22;40936;53.008;6.556;2023-04-22T08:32:42;16.50;99.90
55036;DHT22;40936;53.008;6.556;2023-04-22T08:35:08;17.00;99.90
55036;DHT22;40936;53.008;6.556;2023-04-22T08:37:34;17.40;99.90
55036;DHT22;40936;53.008;6.556;2023-04-22T08:40:00;17.70;99.90
55036;DHT22;40936;53.008;6.556;2023-04-22T08:42:26;17.50;33.10
55036;DHT22;40936;53.008;6.556;2023-04-22T08:44:53;18.10;99.90
55036;DHT22;40936;53.008;6.556;2023-04-22T08:47:20;18.70;99.90
55036;DHT22;40936;53.008;6.556;2023-04-22T08:49:46;19.40;99.90
55036;DHT22;40936;53.008;6.556;2023-04-22T08:52:11;20.30;96.80
55036;DHT22;40936;53.008;6.556;2023-04-22T08:54:40;20.00;99.90
55036;DHT22;40936;53.008;6.556;2023-04-22T08:57:07;20.40;81.00
55036;DHT22;40936;53.008;6.556;2023-04-22T08:59:33;21.10;89.50
55036;DHT22;40936;53.008;6.556;2023-04-22T09:02:01;21.40;5.30
55036;DHT22;40936;53.008;6.556;2023-04-22T09:04:29;21.40;1.00
55036;DHT22;40936;53.008;6.556;2023-04-22T09:06:55;21.90;11.40
55036;DHT22;40936;53.008;6.556;2023-04-22T09:09:21;21.60;1.00
55036;DHT22;40936;53.008;6.556;2023-04-22T09:11:48;21.00;1.00
55036;DHT22;40936;53.008;6.556;2023-04-22T09:14:15;20.70;1.00
55036;DHT22;40936;53.008;6.556;2023-04-22T09:16:45;21.40;1.00
55036;DHT22;40936;53.008;6.556;2023-04-22T09:19:12;22.00;1.00
55036;DHT22;40936;53.008;6.556;2023-04-22T09:21:39;22.30;1.00
55036;DHT22;40936;53.008;6.556;2023-04-22T09:24:07;22.40;1.00
55036;DHT22;40936;53.008;6.556;2023-04-22T09:26:33;22.30;1.00
55036;DHT22;40936;53.008;6.556;2023-04-22T09:28:58;22.30;1.00
55036;DHT22;40936;53.008;6.556;2023-04-22T09:31:26;22.50;1.00
55036;DHT22;40936;53.008;6.556;2023-04-22T09:33:54;23.10;1.00
55036;DHT22;40936;53.008;6.556;2023-04-22T09:36:27;23.50;1.00
55036;DHT22;40936;53.008;6.556;2023-04-22T09:38:55;23.80;1.00
55036;DHT22;40936;53.008;6.556;2023-04-22T09:41:39;22.50;1.00
55036;DHT22;40936;53.008;6.556;2023-04-22T09:44:14;21.60;1.00
55036;DHT22;40936;53.008;6.556;2023-04-22T09:46:42;20.90;1.00
55036;DHT22;40936;53.008;6.556;2023-04-22T09:49:08;20.90;1.00
55036;DHT22;40936;53.008;6.556;2023-04-22T09:51:34;21.20;1.00
55036;DHT22;40936;53.008;6.556;2023-04-22T09:54:05;21.40;1.00
55036;DHT22;40936;53.008;6.556;2023-04-22T09:56:48;21.80;1.00
55036;DHT22;40936;53.008;6.556;2023-04-22T09:59:24;21.70;1.00
55036;DHT22;40936;53.008;6.556;2023-04-22T10:01:52;22.20;1.00
55036;DHT22;40936;53.008;6.556;2023-04-22T10:04:19;22.10;1.00
55036;DHT22;40936;53.008;6.556;2023-04-22T10:06:50;21.60;1.00
55036;DHT22;40936;53.008;6.556;2023-04-22T10:09:21;21.60;1.00
55036;DHT22;40936;53.008;6.556;2023-04-22T10:11:48;21.90;1.00
55036;DHT22;40936;53.008;6.556;2023-04-22T10:14:14;22.20;1.00
55036;DHT22;40936;53.008;6.556;2023-04-22T10:16:42;22.70;1.00
55036;DHT22;40936;53.008;6.556;2023-04-22T10:19:11;23.20;1.00
55036;DHT22;40936;53.008;6.556;2023-04-22T10:21:44;23.40;1.00
55036;DHT22;40936;53.008;6.556;2023-04-22T10:24:18;23.90;1.00
55036;DHT22;40936;53.008;6.556;2023-04-22T10:26:57;23.90;1.00
55036;DHT22;40936;53.008;6.556;2023-04-22T10:29:25;24.20;1.00
55036;DHT22;40936;53.008;6.556;2023-04-22T10:34:17;24.80;1.00
55036;DHT22;40936;53.008;6.556;2023-04-22T10:39:18;25.70;1.00
55036;DHT22;40936;53.008;6.556;2023-04-22T10:44:54;26.40;1.00
55036;DHT22;40936;53.008;6.556;2023-04-22T10:47:33;26.20;1.00
55036;DHT22;40936;53.008;6.556;2023-04-22T10:50:21;25.30;1.00
55036;DHT22;40936;53.008;6.556;2023-04-22T10:52:51;24.90;1.00
55036;DHT22;40936;53.008;6.556;2023-04-22T10:55:17;24.50;1.00
55036;DHT22;40936;53.008;6.556;2023-04-22T10:57:44;25.00;1.00
55036;DHT22;40936;53.008;6.556;2023-04-22T11:00:20;25.70;1.00
55036;DHT22;40936;53.008;6.556;2023-04-22T11:03:05;26.10;1.00
55036;DHT22;40936;53.008;6.556;2023-04-22T11:05:32;26.50;1.00
55036;DHT22;40936;53.008;6.556;2023-04-22T11:08:07;26.30;1.00
55036;DHT22;40936;53.008;6.556;2023-04-22T11:10:46;25.70;1.00
55036;DHT22;40936;53.008;6.556;2023-04-22T11:13:20;25.70;1.00
55036;DHT22;40936;53.008;6.556;2023-04-22T11:15:52;25.30;1.00
55036;DHT22;40936;53.008;6.556;2023-04-22T11:18:20;25.50;1.00
55036;DHT22;40936;53.008;6.556;2023-04-22T11:20:47;26.00;1.00
55036;DHT22;40936;53.008;6.556;2023-04-22T11:23:21;26.30;1.00
55036;DHT22;40936;53.008;6.556;2023-04-22T11:26:00;26.70;1.00
55036;DHT22;40936;53.008;6.556;2023-04-22T11:28:27;27.10;1.00
55036;DHT22;40936;53.008;6.556;2023-04-22T11:31:01;26.50;1.00
55036;DHT22;40936;53.008;6.556;2023-04-22T11:33:26;26.30;1.00
55036;DHT22;40936;53.008;6.556;2023-04-22T11:35:52;26.10;1.00
55036;DHT22;40936;53.008;6.556;2023-04-22T11:38:18;25.70;1.00
55036;DHT22;40936;53.008;6.556;2023-04-22T11:40:43;25.80;1.00
55036;DHT22;40936;53.008;6.556;2023-04-22T11:43:12;25.60;1.00
55036;DHT22;40936;53.008;6.556;2023-04-22T11:45:38;25.50;1.00
55036;DHT22;40936;53.008;6.556;2023-04-22T11:48:06;25.70;1.00
55036;DHT22;40936;53.008;6.556;2023-04-22T11:50:34;25.70;1.00
55036;DHT22;40936;53.008;6.556;2023-04-22T11:53:02;26.30;1.00
55036;DHT22;40936;53.008;6.556;2023-04-22T11:55:33;26.40;1.00
55036;DHT22;40936;53.008;6.556;2023-04-22T11:58:09;26.70;1.00
55036;DHT22;40936;53.008;6.556;2023-04-22T12:00:45;26.20;1.00
55036;DHT22;40936;53.008;6.556;2023-04-22T12:05:41;25.10;1.00
55036;DHT22;40936;53.008;6.556;2023-04-22T12:08:09;24.60;1.00
55036;DHT22;40936;53.008;6.556;2023-04-22T12:10:40;24.10;1.00
55036;DHT22;40936;53.008;6.556;2023-04-22T12:13:06;24.00;1.00
55036;DHT22;40936;53.008;6.556;2023-04-22T12:15:40;22.90;1.00
55036;DHT22;40936;53.008;6.556;2023-04-22T12:18:06;22.70;1.00
55036;DHT22;40936;53.008;6.556;2023-04-22T12:20:33;22.20;1.00
55036;DHT22;40936;53.008;6.556;2023-04-22T12:22:59;21.70;1.00
55036;DHT22;40936;53.008;6.556;2023-04-22T12:25:26;21.50;1.00
55036;DHT22;40936;53.008;6.556;2023-04-22T12:27:51;21.40;1.00
55036;DHT22;40936;53.008;6.556;2023-04-22T12:30:17;21.40;1.00
55036;DHT22;40936;53.008;6.556;2023-04-22T12:32:43;21.20;1.00
55036;DHT22;40936;53.008;6.556;2023-04-22T12:35:08;21.20;1.00
55036;DHT22;40936;53.008;6.556;2023-04-22T12:37:34;21.60;1.00
55036;DHT22;40936;53.008;6.556;2023-04-22T12:40:00;21.80;1.00
55036;DHT22;40936;53.008;6.556;2023-04-22T12:42:26;21.70;1.00
55036;DHT22;40936;53.008;6.556;2023-04-22T12:44:51;21.70;1.00
55036;DHT22;40936;53.008;6.556;2023-04-22T12:47:17;21.60;1.00
55036;DHT22;40936;53.008;6.556;2023-04-22T12:49:43;21.60;1.00
55036;DHT22;40936;53.008;6.556;2023-04-22T12:52:11;21.70;1.00
55036;DHT22;40936;53.008;6.556;2023-04-22T12:54:36;21.80;1.00
55036;DHT22;40936;53.008;6.556;2023-04-22T12:57:02;22.00;1.00
55036;DHT22;40936;53.008;6.556;2023-04-22T12:59:28;21.70;1.00
55036;DHT22;40936;53.008;6.556;2023-04-22T13:01:53;21.50;1.00
55036;DHT22;40936;53.008;6.556;2023-04-22T13:04:20;21.60;1.00
55036;DHT22;40936;53.008;6.556;2023-04-22T13:06:45;21.20;1.00
55036;DHT22;40936;53.008;6.556;2023-04-22T13:09:11;20.90;1.00
55036;DHT22;40936;53.008;6.556;2023-04-22T13:11:37;20.90;1.00
55036;DHT22;40936;53.008;6.556;2023-04-22T13:14:03;20.70;1.00
55036;DHT22;40936;53.008;6.556;2023-04-22T13:16:29;20.60;1.00
55036;DHT22;40936;53.008;6.556;2023-04-22T13:18:55;20.70;1.00
55036;DHT22;40936;53.008;6.556;2023-04-22T13:21:21;20.90;1.00
55036;DHT22;40936;53.008;6.556;2023-04-22T13:23:47;21.10;1.00
55036;DHT22;40936;53.008;6.556;2023-04-22T13:26:12;20.90;1.00
55036;DHT22;40936;53.008;6.556;2023-04-22T13:28:38;20.70;1.00
55036;DHT22;40936;53.008;6.556;2023-04-22T13:31:04;20.50;1.00
55036;DHT22;40936;53.008;6.556;2023-04-22T13:33:29;20.40;1.00
55036;DHT22;40936;53.008;6.556;2023-04-22T13:35:55;20.40;1.00
55036;DHT22;40936;53.008;6.556;2023-04-22T13:38:21;20.20;1.00
55036;DHT22;40936;53.008;6.556;2023-04-22T13:40:46;20.20;1.00
55036;DHT22;40936;53.008;6.556;2023-04-22T13:43:12;20.10;1.00
55036;DHT22;40936;53.008;6.556;2023-04-22T13:45:38;20.00;1.00
55036;DHT22;40936;53.008;6.556;2023-04-22T13:48:05;19.80;1.00
55036;DHT22;40936;53.008;6.556;2023-04-22T13:50:30;19.70;1.00
55036;DHT22;40936;53.008;6.556;2023-04-22T13:52:56;19.50;1.00
55036;DHT22;40936;53.008;6.556;2023-04-22T13:55:22;19.50;1.00
55036;DHT22;40936;53.008;6.556;2023-04-22T13:57:49;19.40;1.00
55036;DHT22;40936;53.008;6.556;2023-04-22T14:00:16;19.40;1.00
55036;DHT22;40936;53.008;6.556;2023-04-22T14:02:43;19.40;1.00
55036;DHT22;40936;53.008;6.556;2023-04-22T14:05:09;19.40;1.00
55036;DHT22;40936;53.008;6.556;2023-04-22T14:07:35;19.30;1.00
55036;DHT22;40936;53.008;6.556;2023-04-22T14:10:01;19.20;1.00
55036;DHT22;40936;53.008;6.556;2023-04-22T14:12:27;19.10;1.00
55036;DHT22;40936;53.008;6.556;2023-04-22T14:14:52;19.00;1.00
55036;DHT22;40936;53.008;6.556;2023-04-22T14:17:18;18.90;1.00
55036;DHT22;40936;53.008;6.556;2023-04-22T14:19:46;18.90;1.00
55036;DHT22;40936;53.008;6.556;2023-04-22T14:22:11;18.80;1.00
55036;DHT22;40936;53.008;6.556;2023-04-22T14:24:37;18.80;1.00
55036;DHT22;40936;53.008;6.556;2023-04-22T14:27:02;18.60;1.00
55036;DHT22;40936;53.008;6.556;2023-04-22T14:29:28;18.50;1.00
55036;DHT22;40936;53.008;6.556;2023-04-22T14:31:56;18.40;1.00
55036;DHT22;40936;53.008;6.556;2023-04-22T14:34:22;18.20;1.00
55036;DHT22;40936;53.008;6.556;2023-04-22T14:36:48;18.20;1.00
55036;DHT22;40936;53.008;6.556;2023-04-22T14:39:14;18.10;1.00
55036;DHT22;40936;53.008;6.556;2023-04-22T14:41:39;18.00;1.00
55036;DHT22;40936;53.008;6.556;2023-04-22T14:44:05;17.90;7.10
55036;DHT22;40936;53.008;6.556;2023-04-22T14:46:31;18.00;2.90
55036;DHT22;40936;53.008;6.556;2023-04-22T14:48:56;18.10;10.40
55036;DHT22;40936;53.008;6.556;2023-04-22T14:51:22;18.20;14.80
55036;DHT22;40936;53.008;6.556;2023-04-22T14:53:48;18.20;46.30
55036;DHT22;40936;53.008;6.556;2023-04-22T14:56:14;18.00;42.30
55036;DHT22;40936;53.008;6.556;2023-04-22T14:58:39;18.00;44.50
55036;DHT22;40936;53.008;6.556;2023-04-22T15:01:05;17.90;64.50
55036;DHT22;40936;53.008;6.556;2023-04-22T15:03:31;17.90;81.60
55036;DHT22;40936;53.008;6.556;2023-04-22T15:05:57;17.80;67.90
55036;DHT22;40936;53.008;6.556;2023-04-22T15:08:23;17.60;88.80
55036;DHT22;40936;53.008;6.556;2023-04-22T15:10:50;17.60;98.80
55036;DHT22;40936;53.008;6.556;2023-04-22T15:13:15;17.50;99.90
55036;DHT22;40936;53.008;6.556;2023-04-22T15:15:41;17.50;99.90
55036;DHT22;40936;53.008;6.556;2023-04-22T15:18:07;17.40;99.90
55036;DHT22;40936;53.008;6.556;2023-04-22T15:20:33;17.20;99.90
55036;DHT22;40936;53.008;6.556;2023-04-22T15:23:00;16.90;99.90
55036;DHT22;40936;53.008;6.556;2023-04-22T15:25:26;16.30;99.90
55036;DHT22;40936;53.008;6.556;2023-04-22T15:27:52;15.90;99.90
55036;DHT22;40936;53.008;6.556;2023-04-22T15:30:21;15.70;62.00
55036;DHT22;40936;53.008;6.556;2023-04-22T15:32:47;15.60;99.90
55036;DHT22;40936;53.008;6.556;2023-04-22T15:35:12;15.30;99.90
55036;DHT22;40936;53.008;6.556;2023-04-22T15:37:39;15.20;99.90
55036;DHT22;40936;53.008;6.556;2023-04-22T15:40:05;15.10;99.90
55036;DHT22;40936;53.008;6.556;2023-04-22T15:42:32;15.10;99.90
55036;DHT22;40936;53.008;6.556;2023-04-22T15:44:57;15.10;99.90
55036;DHT22;40936;53.008;6.556;2023-04-22T15:47:23;15.00;1.00